Time;durP1;ratioP1;P1;durP2;ratioP2;P2;SDS_P1;SDS_P2;PMS_P1;PMS_P2;Temp;Humidity;BMP_temperature;BMP_pressure;BME280_temperature;BME280_humidity;BME280_pressure;Samples;Min_cycle;Max_cycle;Signal;HPM_P1;HPM_P2
2022/08/28 00:04:12;;;;;;;4.80;4.50;;;23.30;44.40;;;;;;10545761;28;20235;-75
2022/08/28 00:09:16;;;;;;;4.90;4.50;;;23.20;44.00;;;;;;10545776;28;20250;-75
2022/08/28 00:14:22;;;;;;;5.47;5.07;;;23.20;44.30;;;;;;10541513;28;20234;-75
2022/08/28 00:19:25;;;;;;;5.23;4.83;;;23.20;45.30;;;;;;10545483;28;20258;-75
2022/08/28 00:24:28;;;;;;;5.83;5.30;;;23.20;44.60;;;;;;10541842;28;20255;-75
2022/08/28 00:29:33;;;;;;;5.00;4.60;;;23.20;44.60;;;;;;10544105;28;20230;-75
2022/08/28 00:34:36;;;;;;;4.90;4.60;;;23.20;45.10;;;;;;10544203;28;20238;-75
2022/08/28 00:39:39;;;;;;;5.60;5.20;;;23.20;44.70;;;;;;10542394;28;20222;-75
2022/08/28 00:44:44;;;;;;;5.63;5.10;;;23.30;44.90;;;;;;10540375;28;20234;-75
2022/08/28 00:49:51;;;;;;;5.37;4.83;;;23.20;45.10;;;;;;10545457;28;20218;-75
2022/08/28 00:54:56;;;;;;;5.57;5.17;;;23.20;45.50;;;;;;10546554;28;20249;-75
2022/08/28 01:00:11;;;;;;;5.10;4.80;;;23.20;45.50;;;;;;10545986;28;20215;-75
2022/08/28 01:05:16;;;;;;;5.67;5.20;;;23.20;45.80;;;;;;10543813;28;20600;-75
2022/08/28 01:10:22;;;;;;;5.93;5.43;;;23.20;45.50;;;;;;10543134;28;20230;-75
2022/08/28 01:15:31;;;;;;;5.57;5.07;;;23.20;45.70;;;;;;10544563;28;20230;-76
2022/08/28 01:20:38;;;;;;;5.73;5.23;;;23.20;45.70;;;;;;10538976;28;20235;-76
2022/08/28 01:25:42;;;;;;;5.57;5.17;;;23.10;45.60;;;;;;10544118;28;20224;-76
2022/08/28 01:30:48;;;;;;;6.43;5.83;;;23.10;45.70;;;;;;10544531;28;20230;-77
2022/08/28 01:35:51;;;;;;;5.67;5.23;;;23.00;45.70;;;;;;10545109;28;20227;-76
2022/08/28 01:40:58;;;;;;;6.33;5.80;;;22.90;45.20;;;;;;10538638;28;20246;-76
2022/08/28 01:46:04;;;;;;;6.27;5.63;;;22.90;46.20;;;;;;10537543;28;20231;-76
2022/08/28 01:51:09;;;;;;;6.63;6.03;;;22.80;45.90;;;;;;10542523;28;20229;-76
2022/08/28 01:56:17;;;;;;;6.60;6.07;;;22.70;45.70;;;;;;10535671;28;20821;-76
2022/08/28 02:01:22;;;;;;;6.60;6.10;;;22.70;47.10;;;;;;10550003;28;20226;-76
2022/08/28 02:06:26;;;;;;;6.77;6.13;;;22.70;47.50;;;;;;10548488;28;20715;-77
2022/08/28 02:11:31;;;;;;;7.00;6.40;;;22.70;46.30;;;;;;10544320;28;20223;-76
2022/08/28 02:16:34;;;;;;;7.20;6.50;;;22.60;47.00;;;;;;10548100;28;20703;-76
2022/08/28 02:21:38;;;;;;;7.63;6.93;;;22.70;46.50;;;;;;10551773;28;20233;-76
2022/08/28 02:26:43;;;;;;;7.50;6.90;;;22.60;46.70;;;;;;10546892;28;20223;-76
2022/08/28 02:31:46;;;;;;;7.47;6.87;;;22.60;47.30;;;;;;10548319;28;20242;-76
2022/08/28 02:36:49;;;;;;;6.90;6.30;;;22.60;46.90;;;;;;10546065;28;20594;-76
2022/08/28 02:41:54;;;;;;;7.03;6.47;;;22.70;46.80;;;;;;10544956;28;20226;-76
2022/08/28 02:46:57;;;;;;;7.57;6.87;;;22.60;47.40;;;;;;10549736;28;20233;-76
2022/08/28 02:52:00;;;;;;;7.97;7.37;;;22.70;47.00;;;;;;10548262;28;20228;-76
2022/08/28 02:57:05;;;;;;;8.60;7.80;;;22.70;46.90;;;;;;10547702;28;20219;-76
2022/08/28 03:02:08;;;;;;;8.00;7.40;;;22.70;47.60;;;;;;10549752;28;20223;-76
2022/08/28 03:07:12;;;;;;;7.27;6.70;;;22.70;47.00;;;;;;10544534;28;20251;-76
2022/08/28 03:12:17;;;;;;;7.67;6.93;;;22.70;47.00;;;;;;10543374;28;20238;-76
2022/08/28 03:17:20;;;;;;;7.90;7.23;;;22.70;47.50;;;;;;10546971;28;20242;-76
2022/08/28 03:27:42;;;;;;;8.03;7.33;;;22.70;47.20;;;;;;10543624;28;20231;-76
2022/08/28 03:32:46;;;;;;;7.63;7.03;;;22.70;47.60;;;;;;10543976;28;20785;-76
2022/08/28 03:37:49;;;;;;;8.43;7.63;;;22.60;47.00;;;;;;10549618;28;20246;-76
2022/08/28 03:42:53;;;;;;;9.00;8.30;;;22.60;47.10;;;;;;10544749;28;20226;-76
2022/08/28 03:47:57;;;;;;;8.80;8.13;;;22.60;48.00;;;;;;10545219;28;20522;-77
2022/08/28 03:53:01;;;;;;;8.60;7.90;;;22.50;47.20;;;;;;10549552;28;20223;-76
2022/08/28 03:58:05;;;;;;;8.63;7.93;;;22.60;47.50;;;;;;10545389;28;20219;-77
2022/08/28 04:03:11;;;;;;;9.30;8.50;;;22.60;48.30;;;;;;10538948;28;20242;-76
2022/08/28 04:08:16;;;;;;;8.80;8.07;;;22.50;47.80;;;;;;10544885;28;20296;-76
2022/08/28 04:13:22;;;;;;;8.23;7.53;;;22.40;48.30;;;;;;10544629;28;20687;-76
2022/08/28 04:18:25;;;;;;;10.67;7.93;;;22.50;48.50;;;;;;10538482;28;20270;-76
2022/08/28 04:23:29;;;;;;;9.00;8.20;;;22.40;47.80;;;;;;10540993;28;20239;-76
2022/08/28 04:28:34;;;;;;;8.23;7.47;;;22.40;48.20;;;;;;10537113;28;20803;-76
2022/08/28 04:33:38;;;;;;;8.83;8.03;;;22.30;48.70;;;;;;10542144;28;20253;-76
2022/08/28 04:38:42;;;;;;;9.10;8.30;;;22.40;48.40;;;;;;10546610;28;20716;-76
2022/08/28 04:43:47;;;;;;;8.97;8.17;;;22.40;48.50;;;;;;10548064;28;20662;-76
2022/08/28 04:48:50;;;;;;;9.33;8.43;;;22.40;48.70;;;;;;10535368;28;20234;-76
2022/08/28 04:53:54;;;;;;;8.80;8.00;;;22.30;48.30;;;;;;10543431;28;20238;-76
2022/08/28 04:59:02;;;;;;;9.27;8.47;;;22.30;48.40;;;;;;10539449;28;20219;-76
2022/08/28 05:04:05;;;;;;;9.60;8.70;;;22.40;49.60;;;;;;10539834;28;20226;-76
2022/08/28 05:09:08;;;;;;;9.77;8.77;;;22.30;48.50;;;;;;10544962;28;20237;-76
2022/08/28 05:14:14;;;;;;;10.13;9.13;;;22.40;48.70;;;;;;10545781;28;20238;-76
2022/08/28 05:19:19;;;;;;;11.07;10.07;;;22.30;49.40;;;;;;10541109;28;20763;-76
2022/08/28 05:24:23;;;;;;;10.63;9.50;;;22.30;49.10;;;;;;10538405;28;20597;-76
2022/08/28 05:29:27;;;;;;;10.30;9.47;;;22.30;48.70;;;;;;10543856;28;20224;-76
2022/08/28 05:34:30;;;;;;;10.80;9.90;;;22.30;49.50;;;;;;10549041;28;20255;-77
2022/08/28 05:39:34;;;;;;;10.07;9.27;;;22.30;49.00;;;;;;10546721;28;20758;-77
2022/08/28 05:44:38;;;;;;;10.13;9.23;;;22.30;49.10;;;;;;10559283;28;20237;-77
2022/08/28 05:49:42;;;;;;;10.50;9.60;;;22.30;49.90;;;;;;10579367;28;20227;-77
2022/08/28 05:54:45;;;;;;;11.10;10.10;;;22.30;49.40;;;;;;10578642;28;20234;-77
2022/08/28 05:59:50;;;;;;;11.13;10.07;;;22.20;49.50;;;;;;10578975;28;20231;-76
2022/08/28 06:04:53;;;;;;;11.90;10.80;;;22.20;50.30;;;;;;10522181;28;20771;-77
2022/08/28 06:09:56;;;;;;;11.50;10.47;;;22.20;49.80;;;;;;10537192;28;20757;-77
2022/08/28 06:15:01;;;;;;;10.33;9.37;;;22.20;49.80;;;;;;10537418;28;20223;-77
2022/08/28 06:20:06;;;;;;;11.10;10.20;;;22.20;50.70;;;;;;10536149;28;20219;-77
2022/08/28 06:25:13;;;;;;;10.97;10.07;;;22.20;50.50;;;;;;10536561;28;20231;-77
2022/08/28 06:30:17;;;;;;;10.43;9.50;;;22.20;50.50;;;;;;10536196;28;20235;-77
2022/08/28 06:35:21;;;;;;;10.73;9.83;;;22.20;50.70;;;;;;10535416;28;20251;-77
2022/08/28 06:40:24;;;;;;;11.27;10.07;;;22.30;50.20;;;;;;10535393;28;20234;-76
2022/08/28 06:45:29;;;;;;;10.00;9.10;;;22.30;50.30;;;;;;10536824;28;20239;-77
2022/08/28 06:50:33;;;;;;;10.33;9.33;;;22.40;50.80;;;;;;10537885;28;20234;-77
2022/08/28 06:55:37;;;;;;;10.33;9.23;;;22.40;50.10;;;;;;10536948;28;20235;-76
2022/08/28 07:00:41;;;;;;;10.40;9.60;;;22.50;50.60;;;;;;10537736;28;20242;-77
2022/08/28 07:05:45;;;;;;;10.37;9.43;;;22.60;50.20;;;;;;10537587;28;20239;-78
2022/08/28 07:10:48;;;;;;;10.90;9.80;;;22.60;49.70;;;;;;10536869;28;20712;-77
2022/08/28 07:15:53;;;;;;;10.53;9.47;;;22.70;50.40;;;;;;10536476;28;20227;-77
2022/08/28 07:20:57;;;;;;;11.17;10.07;;;22.70;49.70;;;;;;10535322;28;20342;-78
2022/08/28 07:26:03;;;;;;;10.33;9.40;;;22.80;49.20;;;;;;10557332;28;20238;-78
2022/08/28 07:31:11;;;;;;;10.77;9.77;;;22.80;49.30;;;;;;10576149;28;20596;-77
2022/08/28 07:36:17;;;;;;;10.30;9.30;;;22.90;49.30;;;;;;10559728;28;20266;-77
2022/08/28 07:41:34;;;;;;;11.27;10.13;;;22.90;48.80;;;;;;10544245;28;20813;-78
2022/08/28 07:46:39;;;;;;;10.23;9.33;;;22.90;48.70;;;;;;10576001;28;20230;-77
2022/08/28 07:51:43;;;;;;;10.70;9.70;;;23.00;48.60;;;;;;10575561;28;20231;-77
2022/08/28 07:56:49;;;;;;;10.20;9.30;;;23.00;48.40;;;;;;10574094;28;20261;-77
2022/08/28 08:01:54;;;;;;;11.53;10.43;;;23.10;48.30;;;;;;10574018;28;20231;-77
2022/08/28 08:06:57;;;;;;;9.83;8.97;;;23.10;48.40;;;;;;10567930;28;20228;-77
2022/08/28 08:12:00;;;;;;;9.80;8.90;;;23.10;48.00;;;;;;10531908;28;20629;-77
2022/08/28 08:17:06;;;;;;;9.40;8.43;;;23.20;48.10;;;;;;10531604;28;20244;-77
2022/08/28 08:22:09;;;;;;;9.43;8.60;;;23.20;47.90;;;;;;10531877;28;20727;-76
2022/08/28 08:27:12;;;;;;;9.20;8.40;;;23.30;47.90;;;;;;10531185;28;20667;-76
2022/08/28 08:32:17;;;;;;;10.90;8.07;;;23.40;47.90;;;;;;10532542;28;20240;-77
2022/08/28 08:37:20;;;;;;;8.83;8.13;;;23.40;47.80;;;;;;10531039;28;20231;-77
2022/08/28 08:42:27;;;;;;;8.40;7.77;;;23.50;47.70;;;;;;10540316;28;20219;-77
2022/08/28 08:47:38;;;;;;;8.53;7.77;;;23.60;47.50;;;;;;10553229;28;20234;-76
2022/08/28 08:52:52;;;;;;;8.10;7.40;;;23.60;47.00;;;;;;10547852;28;20223;-76
2022/08/28 08:58:06;;;;;;;8.47;7.73;;;23.70;46.80;;;;;;10547128;28;20249;-76
2022/08/28 09:03:20;;;;;;;8.40;7.70;;;23.80;46.90;;;;;;10546658;28;20223;-77
2022/08/28 09:08:31;;;;;;;7.90;7.10;;;23.80;46.40;;;;;;10552357;28;20230;-76
2022/08/28 09:13:44;;;;;;;8.03;7.43;;;23.90;46.80;;;;;;10555522;28;20230;-76
2022/08/28 09:18:49;;;;;;;7.97;7.30;;;24.00;46.50;;;;;;10554673;28;20695;-76
2022/08/28 09:23:55;;;;;;;6.90;6.30;;;24.10;46.30;;;;;;10556287;28;20222;-76
2022/08/28 09:29:02;;;;;;;7.50;6.80;;;24.10;46.20;;;;;;10553393;28;20240;-76
2022/08/28 09:34:26;;;;;;;8.37;7.50;;;24.20;46.10;;;;;;10553674;28;20219;-76
2022/08/28 09:39:31;;;;;;;7.43;6.73;;;24.30;45.70;;;;;;10547199;28;20227;-77
2022/08/28 09:44:46;;;;;;;7.93;7.33;;;24.40;45.90;;;;;;10550724;28;20238;-77
2022/08/28 09:49:55;;;;;;;7.90;7.10;;;24.60;46.00;;;;;;10559073;28;20299;-76
2022/08/28 09:54:58;;;;;;;8.00;7.20;;;24.70;45.40;;;;;;10554092;28;20227;-76
2022/08/28 10:00:02;;;;;;;7.50;6.90;;;24.80;45.40;;;;;;10548708;28;20687;-76
2022/08/28 10:05:15;;;;;;;7.93;7.30;;;24.90;45.50;;;;;;10552608;28;20684;-76
2022/08/28 10:10:28;;;;;;;7.60;7.00;;;25.10;44.50;;;;;;10542499;28;20235;-76
2022/08/28 10:15:45;;;;;;;7.83;7.23;;;25.20;44.10;;;;;;10549882;28;20231;-76
2022/08/28 10:20:58;;;;;;;6.90;6.40;;;25.30;43.40;;;;;;10546216;28;20218;-76
2022/08/28 10:26:20;;;;;;;7.47;6.77;;;25.40;43.10;;;;;;10549752;28;20219;-77
2022/08/28 10:31:31;;;;;;;6.53;6.03;;;25.40;42.90;;;;;;10548802;28;20246;-76
2022/08/28 10:36:36;;;;;;;6.70;6.10;;;25.50;42.70;;;;;;10541754;28;20684;-77
2022/08/28 10:41:44;;;;;;;6.13;5.60;;;25.60;43.20;;;;;;10549118;28;20227;-77
2022/08/28 10:46:52;;;;;;;6.23;5.73;;;25.70;42.10;;;;;;10547866;28;20223;-77
2022/08/28 10:52:02;;;;;;;5.77;5.27;;;25.70;41.70;;;;;;10544727;28;20234;-77
2022/08/28 10:57:14;;;;;;;5.57;5.13;;;25.80;41.40;;;;;;10550011;28;20219;-77
2022/08/28 11:02:22;;;;;;;5.63;5.13;;;25.80;41.40;;;;;;10546282;28;20238;-77
2022/08/28 11:07:33;;;;;;;5.83;5.30;;;25.80;41.50;;;;;;10552970;28;20235;-76
2022/08/28 11:12:41;;;;;;;5.73;5.10;;;25.90;41.50;;;;;;10546813;28;20230;-76
2022/08/28 11:17:45;;;;;;;5.20;4.90;;;25.90;41.50;;;;;;10550217;28;20233;-77
2022/08/28 11:22:52;;;;;;;5.17;4.77;;;26.00;41.60;;;;;;10549100;28;20226;-76
2022/08/28 11:28:12;;;;;;;6.97;5.23;;;26.10;41.50;;;;;;10543079;28;20227;-76
2022/08/28 11:33:39;;;;;;;5.77;5.23;;;26.20;41.30;;;;;;10541968;28;20239;-76
2022/08/28 11:39:21;;;;;;;5.47;4.97;;;26.40;41.00;;;;;;10551965;28;20231;-75
2022/08/28 11:44:44;;;;;;;5.40;4.90;;;26.40;41.50;;;;;;10555825;28;20234;-76
2022/08/28 11:49:47;;;;;;;5.67;5.20;;;26.50;40.20;;;;;;10561059;28;20238;-75
2022/08/28 11:55:00;;;;;;;5.63;5.23;;;26.50;40.20;;;;;;10573337;28;20235;-77
2022/08/28 12:00:09;;;;;;;5.50;5.00;;;26.50;38.70;;;;;;10572748;28;20223;-76
2022/08/28 12:05:54;;;;;;;5.30;4.90;;;26.40;39.00;;;;;;10573331;28;20813;-77
2022/08/28 12:10:59;;;;;;;5.10;4.60;;;26.50;39.30;;;;;;10564771;28;20231;-75
2022/08/28 12:16:06;;;;;;;4.70;4.40;;;26.60;39.30;;;;;;10564870;28;20230;-77
2022/08/28 12:21:16;;;;;;;5.20;4.80;;;26.80;38.20;;;;;;10539949;28;20307;-77
2022/08/28 12:26:25;;;;;;;5.10;4.70;;;26.90;37.10;;;;;;10539114;28;20229;-76
2022/08/28 12:32:11;;;;;;;5.10;4.70;;;27.00;37.50;;;;;;10570766;28;20234;-76
2022/08/28 12:37:31;;;;;;;5.27;4.77;;;27.00;37.70;;;;;;10540737;28;20234;-75
2022/08/28 12:42:58;;;;;;;4.57;4.17;;;27.10;37.50;;;;;;10546411;28;20226;-76
2022/08/28 12:48:12;;;;;;;4.87;4.40;;;27.10;36.60;;;;;;10544894;28;20302;-76
2022/08/28 12:53:18;;;;;;;4.47;4.03;;;27.10;36.70;;;;;;10536897;28;20218;-76
2022/08/28 12:58:32;;;;;;;6.47;4.23;;;27.20;36.90;;;;;;10542544;28;20211;-76
2022/08/28 13:03:43;;;;;;;4.73;4.30;;;27.30;36.80;;;;;;10543481;28;20234;-75
2022/08/28 13:08:49;;;;;;;4.97;4.57;;;27.30;35.80;;;;;;10571186;28;20231;-77
2022/08/28 13:13:53;;;;;;;4.60;4.30;;;27.30;35.90;;;;;;10571336;28;20235;-77
2022/08/28 13:19:13;;;;;;;4.43;4.03;;;27.30;35.70;;;;;;10569974;28;20707;-75
2022/08/28 13:24:42;;;;;;;4.53;3.73;;;27.30;34.90;;;;;;10544248;28;20591;-75
2022/08/28 13:30:19;;;;;;;4.33;3.93;;;27.30;34.70;;;;;;10536541;28;20231;-76
2022/08/28 13:35:37;;;;;;;4.30;3.90;;;27.30;35.40;;;;;;10541999;28;20280;-76
2022/08/28 13:40:50;;;;;;;4.40;4.00;;;27.30;34.50;;;;;;10539701;28;20231;-76
2022/08/28 13:46:01;;;;;;;4.37;4.00;;;27.20;34.50;;;;;;10541909;28;20247;-75
2022/08/28 13:51:07;;;;;;;4.30;4.00;;;27.30;36.10;;;;;;10541041;28;20288;-75
2022/08/28 13:56:14;;;;;;;4.73;4.00;;;27.40;34.60;;;;;;10548963;28;20249;-76
2022/08/28 14:01:22;;;;;;;4.30;3.90;;;27.40;35.60;;;;;;10549174;28;20219;-75
2022/08/28 14:06:43;;;;;;;4.23;3.93;;;27.30;33.40;;;;;;10551245;28;20314;-75
2022/08/28 14:11:47;;;;;;;4.70;4.40;;;27.30;34.60;;;;;;10547046;28;20223;-75
2022/08/28 14:16:54;;;;;;;4.53;4.20;;;27.40;34.60;;;;;;10551306;28;20223;-76
2022/08/28 14:21:58;;;;;;;4.83;4.50;;;27.40;33.70;;;;;;10544164;28;20231;-76
2022/08/28 14:27:01;;;;;;;4.60;4.30;;;27.40;34.90;;;;;;10548833;28;20226;-75
2022/08/28 14:32:06;;;;;;;4.80;4.40;;;27.40;35.10;;;;;;10542801;28;20234;-76
2022/08/28 14:37:09;;;;;;;5.17;4.43;;;27.50;34.10;;;;;;10543934;28;20242;-75
2022/08/28 14:42:12;;;;;;;4.80;4.40;;;27.50;34.60;;;;;;10548232;28;20231;-75
2022/08/28 14:47:17;;;;;;;4.40;4.00;;;27.60;34.80;;;;;;10543521;28;20215;-75
2022/08/28 14:52:21;;;;;;;4.47;4.17;;;27.60;33.90;;;;;;10549170;28;20226;-75
2022/08/28 14:57:24;;;;;;;4.67;4.27;;;27.60;33.70;;;;;;10541868;28;20232;-75
2022/08/28 15:02:29;;;;;;;4.43;4.03;;;27.50;33.80;;;;;;10544779;28;20240;-75
2022/08/28 15:07:32;;;;;;;4.63;4.20;;;27.50;33.10;;;;;;10539325;28;20230;-75
2022/08/28 15:12:35;;;;;;;5.10;4.00;;;27.50;33.80;;;;;;10547175;28;20227;-75
2022/08/28 15:17:42;;;;;;;4.07;3.77;;;27.60;33.70;;;;;;10545258;28;20224;-75
2022/08/28 15:22:45;;;;;;;4.50;4.17;;;27.60;33.40;;;;;;10549092;28;20223;-75
2022/08/28 15:27:48;;;;;;;4.33;3.93;;;27.60;33.60;;;;;;10539551;28;20729;-75
2022/08/28 15:32:53;;;;;;;4.43;4.00;;;27.60;33.20;;;;;;10542967;28;20599;-75
2022/08/28 15:37:56;;;;;;;4.20;3.90;;;27.50;32.30;;;;;;10543617;28;20219;-75
2022/08/28 15:42:59;;;;;;;4.07;3.80;;;27.60;33.00;;;;;;10547769;28;20254;-75
2022/08/28 15:48:04;;;;;;;4.00;3.70;;;27.60;33.00;;;;;;10542158;28;20215;-76
2022/08/28 15:53:08;;;;;;;3.77;3.57;;;27.60;32.30;;;;;;10542935;28;20224;-75
2022/08/28 15:58:11;;;;;;;3.67;3.47;;;27.60;33.10;;;;;;10546332;28;20226;-75
2022/08/28 16:03:17;;;;;;;4.17;3.80;;;27.70;32.70;;;;;;10542788;28;20276;-75
2022/08/28 16:08:22;;;;;;;4.23;3.83;;;27.70;32.30;;;;;;10544194;28;20231;-75
2022/08/28 16:13:25;;;;;;;4.67;4.00;;;27.80;33.00;;;;;;10538564;28;20232;-75
2022/08/28 16:18:29;;;;;;;4.50;4.10;;;27.70;32.60;;;;;;10538161;28;20223;-75
2022/08/28 16:23:33;;;;;;;4.20;3.90;;;27.70;32.20;;;;;;10543601;28;20237;-75
2022/08/28 16:28:37;;;;;;;4.10;3.80;;;27.60;32.70;;;;;;10537754;28;20226;-75
2022/08/28 16:33:42;;;;;;;4.50;4.10;;;27.70;32.70;;;;;;10539606;28;20227;-75
2022/08/28 16:38:47;;;;;;;4.17;3.87;;;27.70;32.20;;;;;;10541265;28;20751;-75
2022/08/28 16:44:02;;;;;;;4.27;3.93;;;27.60;32.20;;;;;;10538124;28;20750;-75
2022/08/28 16:49:07;;;;;;;4.33;4.03;;;27.70;32.50;;;;;;10541583;28;20232;-75
2022/08/28 16:54:11;;;;;;;4.63;4.27;;;27.70;32.20;;;;;;10540907;28;20241;-75
2022/08/28 16:59:15;;;;;;;4.27;3.97;;;27.70;32.50;;;;;;10540933;28;20218;-75
2022/08/28 17:04:20;;;;;;;4.57;4.17;;;27.70;32.50;;;;;;10544021;28;20725;-75
2022/08/28 17:09:23;;;;;;;4.70;4.30;;;27.70;32.00;;;;;;10542438;28;20715;-75
2022/08/28 17:14:27;;;;;;;4.03;3.63;;;27.70;32.40;;;;;;10540924;28;20227;-75
2022/08/28 17:19:31;;;;;;;5.07;4.17;;;27.70;32.20;;;;;;10544202;28;20234;-75
2022/08/28 17:24:35;;;;;;;4.40;4.00;;;27.70;31.80;;;;;;10540279;28;20966;-75
2022/08/28 17:29:38;;;;;;;4.73;4.00;;;27.70;32.20;;;;;;10545096;28;20230;-75
2022/08/28 17:34:43;;;;;;;3.97;3.63;;;27.60;32.20;;;;;;10547927;28;20219;-75
2022/08/28 17:39:46;;;;;;;4.33;4.00;;;27.60;32.60;;;;;;10552533;28;20764;-75
2022/08/28 17:44:50;;;;;;;4.30;3.77;;;27.60;32.20;;;;;;10547643;28;20244;-75
2022/08/28 17:49:54;;;;;;;4.40;3.90;;;27.50;32.20;;;;;;10546013;28;20227;-75
2022/08/28 17:54:58;;;;;;;4.60;4.30;;;27.40;32.00;;;;;;10548296;28;20778;-75
2022/08/28 18:00:02;;;;;;;4.03;3.73;;;27.40;32.30;;;;;;10548326;28;21019;-75
2022/08/28 18:05:10;;;;;;;4.53;4.13;;;27.30;32.40;;;;;;10549844;28;20219;-75
2022/08/28 18:10:14;;;;;;;3.80;3.50;;;27.20;32.30;;;;;;10546262;28;20720;-75
2022/08/28 18:15:17;;;;;;;4.10;3.80;;;27.20;32.70;;;;;;10551291;28;20231;-75
2022/08/28 18:20:22;;;;;;;4.07;3.70;;;27.10;32.50;;;;;;10550537;28;20219;-75
2022/08/28 18:25:44;;;;;;;4.30;3.90;;;27.00;32.60;;;;;;10549212;28;20234;-75
2022/08/28 18:30:53;;;;;;;4.40;4.10;;;27.00;32.80;;;;;;10547383;28;20219;-75
2022/08/28 18:35:58;;;;;;;4.23;3.90;;;26.90;32.80;;;;;;10551831;28;20778;-75
2022/08/28 18:41:02;;;;;;;4.10;3.80;;;26.80;32.70;;;;;;10540105;28;20224;-75
2022/08/28 18:46:07;;;;;;;4.13;3.83;;;26.80;33.00;;;;;;10542180;28;20219;-75
2022/08/28 18:51:34;;;;;;;3.87;3.67;;;26.70;33.10;;;;;;10545309;28;20314;-75
2022/08/28 18:56:38;;;;;;;5.53;4.40;;;26.60;33.00;;;;;;10543777;28;20231;-75
2022/08/28 19:01:43;;;;;;;4.40;4.10;;;26.50;33.20;;;;;;10545681;28;20727;-75
2022/08/28 19:06:48;;;;;;;4.37;4.07;;;26.40;33.30;;;;;;10544261;28;20222;-75
2022/08/28 19:11:51;;;;;;;4.07;3.70;;;26.30;33.40;;;;;;10540570;28;20687;-75
2022/08/28 19:16:55;;;;;;;4.67;4.27;;;26.10;33.60;;;;;;10546885;28;20252;-74
2022/08/28 19:22:00;;;;;;;4.87;4.40;;;26.10;33.80;;;;;;10539747;28;20990;-75
2022/08/28 19:27:03;;;;;;;4.60;4.20;;;26.00;34.10;;;;;;10545102;28;20329;-75
2022/08/28 19:32:08;;;;;;;4.73;4.33;;;25.90;34.10;;;;;;10546976;28;20223;-74
2022/08/28 19:37:13;;;;;;;4.57;4.27;;;25.80;34.20;;;;;;10539705;28;20227;-75
2022/08/28 19:42:16;;;;;;;4.30;4.00;;;25.70;34.30;;;;;;10542533;28;20226;-75
2022/08/28 19:47:20;;;;;;;4.20;4.00;;;25.70;34.30;;;;;;10542447;28;20239;-75
2022/08/28 19:52:24;;;;;;;4.00;3.70;;;25.60;34.30;;;;;;10544433;28;20223;-75
2022/08/28 19:57:27;;;;;;;4.50;4.20;;;25.40;34.40;;;;;;10544527;28;20232;-76
2022/08/28 20:02:31;;;;;;;4.43;4.07;;;25.30;34.50;;;;;;10542955;28;20285;-75
2022/08/28 20:07:35;;;;;;;4.73;4.33;;;25.20;34.50;;;;;;10542846;28;20739;-75
2022/08/28 20:12:39;;;;;;;4.97;4.57;;;25.10;35.50;;;;;;10536427;28;20235;-75
2022/08/28 20:17:51;;;;;;;4.20;3.90;;;24.90;34.70;;;;;;10538282;28;20635;-75
2022/08/28 20:22:55;;;;;;;5.80;4.77;;;24.80;34.70;;;;;;10536533;28;20223;-75
2022/08/28 20:27:58;;;;;;;4.60;4.20;;;24.70;35.10;;;;;;10544729;28;20296;-75
2022/08/28 20:33:03;;;;;;;5.27;4.87;;;24.50;35.00;;;;;;10542415;28;20627;-75
2022/08/28 20:38:09;;;;;;;5.20;4.80;;;24.40;35.20;;;;;;10540397;28;20246;-75
2022/08/28 20:43:13;;;;;;;5.20;4.80;;;24.10;35.40;;;;;;10536256;28;20227;-74
2022/08/28 20:48:16;;;;;;;4.90;4.50;;;24.00;35.50;;;;;;10541785;28;21026;-74
2022/08/28 20:53:21;;;;;;;5.87;5.30;;;23.80;35.60;;;;;;10541979;28;20230;-75
2022/08/28 20:58:39;;;;;;;5.67;5.27;;;23.70;36.30;;;;;;10545035;28;20230;-76
2022/08/28 21:03:43;;;;;;;5.33;4.83;;;23.60;35.90;;;;;;10547489;28;20235;-75
2022/08/28 21:08:48;;;;;;;5.17;4.77;;;23.40;36.00;;;;;;10554258;28;20225;-75
2022/08/28 21:13:52;;;;;;;5.67;5.17;;;23.30;36.50;;;;;;10553528;28;20895;-75
2022/08/28 21:18:55;;;;;;;5.53;5.03;;;23.20;36.50;;;;;;10556814;28;20234;-75
2022/08/28 21:24:19;;;;;;;5.70;5.20;;;23.20;36.60;;;;;;10555328;27;20337;-75
2022/08/28 21:29:23;;;;;;;5.40;4.97;;;23.10;37.00;;;;;;10556033;28;20223;-75
2022/08/28 21:34:26;;;;;;;5.87;5.47;;;23.10;36.80;;;;;;10548254;28;20231;-76
2022/08/28 21:39:31;;;;;;;5.40;5.00;;;23.00;36.80;;;;;;10550046;28;20233;-77
2022/08/28 21:44:34;;;;;;;5.17;4.77;;;22.90;37.20;;;;;;10552700;28;20249;-77
2022/08/28 21:49:37;;;;;;;6.17;5.67;;;22.80;36.90;;;;;;10551171;28;20231;-77
2022/08/28 21:54:42;;;;;;;6.10;5.60;;;22.80;36.90;;;;;;10551028;28;20231;-77
2022/08/28 21:59:45;;;;;;;5.17;4.80;;;22.80;37.30;;;;;;10550833;28;20227;-76
2022/08/28 22:04:48;;;;;;;5.57;4.80;;;22.70;37.00;;;;;;10550529;28;20266;-77
2022/08/28 22:09:53;;;;;;;5.27;4.87;;;22.60;37.20;;;;;;10549269;28;20231;-77
2022/08/28 22:14:56;;;;;;;5.17;4.77;;;22.50;37.40;;;;;;10545674;28;20235;-77
2022/08/28 22:20:00;;;;;;;5.97;5.37;;;22.60;37.30;;;;;;10543363;28;20316;-77
2022/08/28 22:25:05;;;;;;;5.57;5.10;;;22.50;37.30;;;;;;10542945;28;20230;-77
2022/08/28 22:30:09;;;;;;;6.00;5.50;;;22.40;37.70;;;;;;10543710;28;20598;-77
2022/08/28 22:35:12;;;;;;;5.77;5.27;;;22.30;37.70;;;;;;10544131;28;20256;-77
2022/08/28 22:40:17;;;;;;;5.80;5.40;;;22.20;37.70;;;;;;10543150;28;20228;-78
2022/08/28 22:45:21;;;;;;;6.40;5.80;;;22.10;38.40;;;;;;10544621;28;20227;-77
2022/08/28 22:50:24;;;;;;;6.03;5.53;;;22.10;38.00;;;;;;10544616;28;20236;-77
2022/08/28 22:55:29;;;;;;;6.73;5.93;;;22.10;38.00;;;;;;10542256;28;20245;-77
2022/08/28 23:00:33;;;;;;;6.20;5.10;;;22.00;38.30;;;;;;10542723;28;20820;-78
2022/08/28 23:05:36;;;;;;;6.30;5.80;;;21.90;38.20;;;;;;10541952;28;20224;-77
2022/08/28 23:10:40;;;;;;;5.83;5.43;;;21.90;38.20;;;;;;10541090;28;20231;-77
2022/08/28 23:16:02;;;;;;;6.00;5.53;;;21.80;38.10;;;;;;10541900;28;20239;-78
2022/08/28 23:21:07;;;;;;;4.83;4.53;;;21.80;38.10;;;;;;10539687;28;20227;-78
2022/08/28 23:26:14;;;;;;;6.20;5.70;;;21.80;38.10;;;;;;10538578;28;20246;-77
2022/08/28 23:31:17;;;;;;;6.83;6.23;;;21.80;38.10;;;;;;10542253;28;20242;-77
2022/08/28 23:36:21;;;;;;;6.10;5.60;;;21.80;38.10;;;;;;10543348;28;20582;-77
2022/08/28 23:41:26;;;;;;;6.10;5.60;;;21.70;38.00;;;;;;10542547;28;20223;-77
2022/08/28 23:46:29;;;;;;;6.67;6.07;;;21.60;37.90;;;;;;10542559;28;20711;-78
2022/08/28 23:51:34;;;;;;;5.80;5.40;;;21.50;37.80;;;;;;10543342;28;20255;-77
2022/08/28 23:56:39;;;;;;;5.67;5.27;;;21.40;38.20;;;;;;10541188;28;20220;-77
